createdAt,value
2018-10-17T00:01:03.723Z,29.40
2018-10-17T00:03:32.485Z,24.80
2018-10-17T00:06:01.163Z,20.00
2018-10-17T00:08:29.756Z,21.50
2018-10-17T00:10:58.483Z,21.70
2018-10-17T00:13:27.047Z,31.03
2018-10-17T00:15:55.623Z,20.07
2018-10-17T00:18:24.079Z,20.10
2018-10-17T00:20:52.540Z,21.60
2018-10-17T00:23:21.017Z,20.60
2018-10-17T00:25:49.533Z,21.53
2018-10-17T00:28:17.960Z,24.73
2018-10-17T00:30:46.505Z,22.50
2018-10-17T00:33:15.201Z,22.93
2018-10-17T00:35:43.726Z,22.43
2018-10-17T00:38:12.250Z,20.20
2018-10-17T00:40:40.698Z,23.73
2018-10-17T00:43:09.151Z,18.40
2018-10-17T00:45:37.578Z,23.80
2018-10-17T00:48:06.072Z,22.07
2018-10-17T00:50:34.551Z,27.33
2018-10-17T00:53:02.958Z,21.10
2018-10-17T00:55:31.363Z,22.27
2018-10-17T00:57:59.785Z,22.77
2018-10-17T01:00:28.299Z,24.87
2018-10-17T01:02:56.808Z,21.50
2018-10-17T01:05:25.272Z,19.07
2018-10-17T01:07:53.813Z,22.30
2018-10-17T01:10:22.290Z,22.73
2018-10-17T01:12:50.741Z,23.80
2018-10-17T01:15:19.221Z,21.57
2018-10-17T01:17:47.628Z,22.60
2018-10-17T01:20:16.125Z,21.07
2018-10-17T01:22:44.570Z,19.90
2018-10-17T01:25:13.062Z,21.27
2018-10-17T01:27:41.427Z,19.53
2018-10-17T01:30:09.838Z,20.73
2018-10-17T01:32:38.323Z,22.47
2018-10-17T01:35:07.389Z,21.60
2018-10-17T01:37:35.896Z,25.53
2018-10-17T01:40:04.447Z,21.07
2018-10-17T01:42:32.959Z,22.63
2018-10-17T01:45:01.379Z,20.73
2018-10-17T01:47:29.812Z,19.20
2018-10-17T01:49:58.324Z,20.23
2018-10-17T01:52:26.760Z,18.93
2018-10-17T01:54:55.265Z,20.00
2018-10-17T01:57:23.804Z,29.40
2018-10-17T01:59:52.287Z,20.60
2018-10-17T02:02:20.721Z,19.83
2018-10-17T02:04:49.190Z,18.20
2018-10-17T02:07:17.585Z,19.70
2018-10-17T02:09:46.000Z,21.13
2018-10-17T02:12:14.405Z,18.43
2018-10-17T02:14:42.756Z,22.17
2018-10-17T02:17:11.273Z,21.93
2018-10-17T02:19:39.622Z,20.23
2018-10-17T02:22:08.001Z,21.50
2018-10-17T02:24:36.405Z,20.43
2018-10-17T02:27:04.897Z,23.67
2018-10-17T02:29:33.303Z,25.33
2018-10-17T02:32:01.716Z,20.50
2018-10-17T02:34:30.110Z,21.93
2018-10-17T02:36:58.553Z,22.07
2018-10-17T02:39:26.980Z,26.60
2018-10-17T02:41:55.403Z,22.83
2018-10-17T02:44:23.810Z,24.90
2018-10-17T02:46:52.244Z,21.20
2018-10-17T02:49:27.384Z,22.73
2018-10-17T02:51:55.840Z,23.03
2018-10-17T02:54:24.220Z,21.67
2018-10-17T02:56:52.621Z,21.17
2018-10-17T02:59:21.950Z,23.00
2018-10-17T03:01:50.432Z,25.40
2018-10-17T03:04:18.876Z,25.60
2018-10-17T03:06:47.296Z,21.93
2018-10-17T03:09:15.723Z,22.47
2018-10-17T03:11:44.197Z,23.43
2018-10-17T03:14:12.677Z,23.40
2018-10-17T03:16:41.370Z,19.73
2018-10-17T03:19:09.981Z,20.10
2018-10-17T03:21:38.598Z,17.57
2018-10-17T03:24:07.209Z,20.37
2018-10-17T03:26:35.912Z,20.40
2018-10-17T03:29:04.515Z,17.90
2018-10-17T03:31:33.081Z,19.20
2018-10-17T03:34:01.669Z,20.97
2018-10-17T03:36:30.160Z,17.27
2018-10-17T03:38:58.708Z,17.40
2018-10-17T03:41:27.284Z,18.17
2018-10-17T03:43:55.859Z,18.77
2018-10-17T03:46:24.425Z,16.83
2018-10-17T03:48:53.024Z,15.50
2018-10-17T03:51:21.695Z,19.70
2018-10-17T03:53:50.156Z,17.27
2018-10-17T03:56:18.649Z,21.43
2018-10-17T03:58:47.261Z,18.07
2018-10-17T04:01:15.769Z,22.03
2018-10-17T04:03:44.148Z,17.30
2018-10-17T04:06:12.659Z,19.23
2018-10-17T04:08:41.114Z,20.10
2018-10-17T04:11:09.624Z,20.77
2018-10-17T04:13:37.988Z,19.07
2018-10-17T04:16:06.380Z,20.23
2018-10-17T04:18:34.831Z,18.37
2018-10-17T04:21:03.228Z,19.23
2018-10-17T04:23:31.656Z,19.50
2018-10-17T04:26:00.048Z,21.53
2018-10-17T04:28:28.579Z,20.47
2018-10-17T04:30:57.008Z,19.03
2018-10-17T04:33:25.465Z,21.00
2018-10-17T04:35:53.901Z,20.60
2018-10-17T04:38:22.472Z,20.30
2018-10-17T04:40:50.884Z,19.93
2018-10-17T04:43:19.562Z,23.50
2018-10-17T04:45:47.887Z,37.67
2018-10-17T04:48:16.360Z,24.43
2018-10-17T04:50:44.744Z,19.83
2018-10-17T04:53:13.213Z,24.00
2018-10-17T04:55:41.723Z,22.17
2018-10-17T04:58:10.176Z,20.50
2018-10-17T05:00:38.692Z,20.60
2018-10-17T05:03:07.153Z,20.37
2018-10-17T05:05:35.633Z,19.87
2018-10-17T05:08:04.088Z,23.27
2018-10-17T05:10:32.584Z,22.70
2018-10-17T05:13:01.175Z,20.37
2018-10-17T05:15:29.667Z,22.73
2018-10-17T05:17:58.153Z,16.47
2018-10-17T05:20:26.841Z,23.60
2018-10-17T05:22:55.377Z,24.70
2018-10-17T05:25:23.724Z,23.37
2018-10-17T05:27:52.168Z,25.20
2018-10-17T05:30:20.563Z,22.90
2018-10-17T05:32:49.075Z,22.87
2018-10-17T05:35:17.537Z,25.43
2018-10-17T05:37:46.135Z,23.50
2018-10-17T05:40:14.502Z,23.50
2018-10-17T05:42:42.984Z,27.87
2018-10-17T05:45:11.424Z,28.80
2018-10-17T05:47:40.217Z,30.40
2018-10-17T05:50:08.703Z,27.77
2018-10-17T05:52:37.160Z,22.00
2018-10-17T05:55:06.090Z,26.57
2018-10-17T05:57:34.460Z,27.63
2018-10-17T06:00:02.862Z,26.33
2018-10-17T06:02:34.097Z,25.73
2018-10-17T06:05:02.569Z,22.17
2018-10-17T06:07:30.949Z,24.20
2018-10-17T06:09:59.756Z,28.83
2018-10-17T06:12:28.196Z,28.43
2018-10-17T06:14:56.664Z,36.93
2018-10-17T06:17:25.112Z,25.87
2018-10-17T06:19:53.707Z,26.07
2018-10-17T06:22:22.175Z,25.93
2018-10-17T06:24:50.750Z,24.83
2018-10-17T06:27:19.144Z,29.20
2018-10-17T06:29:47.674Z,27.30
2018-10-17T06:32:16.136Z,29.63
2018-10-17T06:34:44.807Z,23.43
2018-10-17T06:37:13.309Z,25.30
2018-10-17T06:39:41.712Z,27.50
2018-10-17T06:42:10.250Z,28.17
2018-10-17T06:44:38.731Z,22.47
2018-10-17T06:47:07.404Z,26.67
2018-10-17T06:49:35.943Z,30.50
2018-10-17T06:52:04.368Z,24.70
2018-10-17T06:54:33.096Z,24.70
2018-10-17T06:57:01.521Z,20.73
2018-10-17T06:59:30.061Z,21.70
2018-10-17T07:01:59.142Z,20.80
2018-10-17T07:04:27.575Z,24.00
2018-10-17T07:06:56.153Z,20.80
2018-10-17T07:09:24.761Z,22.93
2018-10-17T07:11:53.252Z,20.73
2018-10-17T07:14:22.417Z,25.87
2018-10-17T07:16:51.006Z,20.60
2018-10-17T07:19:19.448Z,22.97
2018-10-17T07:21:47.903Z,18.60
2018-10-17T07:27:19.732Z,26.23
2018-10-17T07:29:48.239Z,25.80
2018-10-17T07:32:16.782Z,22.80
2018-10-17T07:34:45.265Z,20.60
2018-10-17T07:37:13.749Z,18.13
2018-10-17T07:39:42.361Z,19.13
2018-10-17T07:42:10.883Z,23.53
2018-10-17T07:44:39.395Z,24.17
2018-10-17T07:47:07.868Z,19.67
2018-10-17T07:49:36.432Z,17.57
2018-10-17T07:52:05.552Z,21.10
2018-10-17T07:54:34.016Z,17.77
2018-10-17T07:57:02.461Z,16.47
2018-10-17T07:59:30.959Z,23.03
2018-10-17T08:01:59.357Z,17.20
2018-10-17T08:04:27.788Z,20.53
2018-10-17T08:06:56.280Z,15.20
2018-10-17T08:09:24.719Z,14.20
2018-10-17T08:11:53.212Z,16.43
2018-10-17T08:14:21.641Z,14.13
2018-10-17T08:16:50.970Z,14.73
2018-10-17T08:19:19.499Z,12.40
2018-10-17T08:21:47.958Z,12.90
2018-10-17T08:24:16.477Z,14.60
2018-10-17T08:26:44.907Z,15.93
2018-10-17T08:29:13.683Z,12.83
2018-10-17T08:31:42.205Z,13.13
2018-10-17T08:34:10.659Z,12.87
2018-10-17T08:36:39.392Z,14.67
2018-10-17T08:39:09.072Z,13.93
2018-10-17T08:41:37.545Z,12.30
2018-10-17T08:44:06.042Z,15.17
2018-10-17T08:46:34.528Z,14.30
2018-10-17T08:49:02.956Z,12.30
2018-10-17T08:51:31.405Z,14.93
2018-10-17T08:53:59.880Z,12.20
2018-10-17T08:56:28.353Z,12.40
2018-10-17T08:58:56.875Z,13.10
2018-10-17T09:01:25.341Z,15.20
2018-10-17T09:03:53.847Z,13.20
2018-10-17T09:06:22.287Z,13.50
2018-10-17T09:08:50.825Z,14.00
2018-10-17T09:11:19.578Z,14.03
2018-10-17T09:13:48.035Z,12.47
2018-10-17T09:16:16.599Z,14.13
2018-10-17T09:18:44.950Z,13.30
2018-10-17T09:21:13.654Z,12.97
2018-10-17T09:23:42.017Z,12.57
2018-10-17T09:26:10.480Z,11.73
2018-10-17T09:28:38.908Z,15.93
2018-10-17T09:31:07.428Z,13.63
2018-10-17T09:33:35.860Z,15.60
2018-10-17T09:36:04.510Z,17.83
2018-10-17T09:38:33.009Z,20.23
2018-10-17T09:41:01.471Z,22.80
2018-10-17T09:43:29.941Z,18.90
2018-10-17T09:45:58.473Z,18.53
2018-10-17T09:48:26.864Z,17.23
2018-10-17T09:50:55.940Z,21.03
2018-10-17T09:53:24.404Z,18.33
2018-10-17T09:55:52.833Z,18.07
2018-10-17T09:58:21.256Z,15.60
2018-10-17T10:00:54.972Z,17.70
2018-10-17T10:03:23.399Z,18.50
2018-10-17T10:05:51.866Z,19.60
2018-10-17T10:08:20.292Z,19.67
2018-10-17T10:10:48.818Z,20.20
2018-10-17T10:13:17.213Z,22.10
2018-10-17T10:15:45.697Z,23.40
2018-10-17T10:18:14.160Z,26.43
2018-10-17T10:20:42.624Z,26.90
2018-10-17T10:23:11.160Z,26.13
2018-10-17T10:25:39.545Z,29.53
2018-10-17T10:28:08.062Z,28.90
2018-10-17T10:30:36.552Z,29.27
2018-10-17T10:33:05.791Z,26.60
2018-10-17T10:35:34.220Z,31.43
2018-10-17T10:38:02.695Z,38.27
2018-10-17T10:40:31.203Z,28.97
2018-10-17T10:42:59.628Z,25.80
2018-10-17T10:45:28.083Z,31.23
2018-10-17T10:47:56.595Z,37.90
2018-10-17T10:50:25.045Z,31.50
2018-10-17T10:52:53.654Z,30.77
2018-10-17T10:55:22.013Z,32.30
2018-10-17T10:57:50.504Z,32.73
2018-10-17T11:00:19.020Z,35.23
2018-10-17T11:02:47.385Z,37.90
2018-10-17T11:05:15.920Z,31.70
2018-10-17T11:07:44.335Z,30.43
2018-10-17T11:10:12.769Z,31.67
2018-10-17T11:12:41.229Z,36.67
2018-10-17T11:15:10.077Z,39.07
2018-10-17T11:17:38.472Z,31.13
2018-10-17T11:20:07.811Z,28.77
2018-10-17T11:22:36.292Z,33.17
2018-10-17T11:25:05.305Z,35.23
2018-10-17T11:27:34.048Z,30.63
2018-10-17T11:30:02.516Z,30.80
2018-10-17T11:32:31.085Z,32.60
2018-10-17T11:34:59.836Z,33.87
2018-10-17T11:37:28.620Z,36.80
2018-10-17T11:39:57.133Z,32.80
2018-10-17T11:42:25.675Z,31.50
2018-10-17T11:44:54.123Z,33.30
2018-10-17T11:47:22.578Z,31.17
2018-10-17T11:49:51.036Z,27.57
2018-10-17T11:52:19.500Z,29.90
2018-10-17T11:54:47.917Z,31.67
2018-10-17T11:57:16.427Z,31.83
2018-10-17T11:59:47.982Z,27.20
2018-10-17T12:02:16.409Z,38.73
2018-10-17T12:04:45.080Z,31.93
2018-10-17T12:07:13.344Z,27.10
2018-10-17T12:09:41.996Z,25.07
2018-10-17T12:12:10.644Z,29.33
2018-10-17T12:14:39.135Z,27.60
2018-10-17T12:17:07.720Z,26.63
2018-10-17T12:19:36.228Z,27.80
2018-10-17T12:22:04.712Z,26.03
2018-10-17T12:24:33.368Z,28.70
2018-10-17T12:27:01.939Z,28.27
2018-10-17T12:29:30.341Z,30.80
2018-10-17T12:31:58.793Z,32.97
2018-10-17T12:34:27.253Z,30.53
2018-10-17T12:36:55.691Z,25.20
2018-10-17T12:39:24.168Z,33.87
2018-10-17T12:41:52.596Z,28.77
2018-10-17T12:44:21.163Z,37.30
2018-10-17T12:46:49.462Z,31.00
2018-10-17T12:49:17.893Z,34.90
2018-10-17T12:51:46.307Z,29.43
2018-10-17T12:54:14.732Z,31.30
2018-10-17T12:56:43.172Z,40.90
2018-10-17T12:59:11.688Z,31.83
2018-10-17T13:01:40.076Z,27.67
2018-10-17T13:04:08.500Z,32.73
2018-10-17T13:06:36.913Z,31.80
2018-10-17T13:09:08.670Z,48.13
2018-10-17T13:11:37.201Z,24.33
2018-10-17T13:14:05.674Z,29.23
2018-10-17T13:16:34.336Z,31.63
2018-10-17T13:19:02.818Z,25.93
2018-10-17T13:21:31.306Z,28.70
2018-10-17T13:24:00.105Z,36.63
2018-10-17T13:26:28.531Z,28.37
2018-10-17T13:28:57.078Z,27.87
2018-10-17T13:31:25.490Z,26.63
2018-10-17T13:33:53.916Z,28.77
2018-10-17T13:36:22.344Z,30.17
2018-10-17T13:38:50.782Z,35.67
2018-10-17T13:41:19.261Z,24.53
2018-10-17T13:43:47.664Z,33.20
2018-10-17T13:46:16.084Z,27.40
2018-10-17T13:48:44.536Z,28.30
2018-10-17T13:51:13.012Z,26.47
2018-10-17T13:53:41.448Z,28.37
2018-10-17T13:56:09.873Z,24.00
2018-10-17T13:58:38.340Z,28.40
2018-10-17T14:01:06.858Z,28.33
2018-10-17T14:03:35.228Z,29.30
2018-10-17T14:06:03.686Z,32.43
2018-10-17T14:08:32.092Z,30.33
2018-10-17T14:11:00.521Z,46.00
2018-10-17T14:13:29.033Z,37.83
2018-10-17T14:15:57.413Z,28.43
2018-10-17T14:18:25.844Z,32.87
2018-10-17T14:20:54.331Z,36.13
2018-10-17T14:23:22.743Z,33.73
2018-10-17T14:25:51.152Z,30.63
2018-10-17T14:28:19.572Z,36.23
2018-10-17T14:30:48.024Z,25.27
2018-10-17T14:33:16.600Z,29.83
2018-10-17T14:35:44.976Z,31.57
2018-10-17T14:38:13.416Z,26.03
2018-10-17T14:40:41.907Z,35.80
2018-10-17T14:43:10.282Z,33.87
2018-10-17T14:45:38.732Z,35.43
2018-10-17T14:48:07.351Z,30.53
2018-10-17T14:50:35.765Z,29.40
2018-10-17T14:53:04.264Z,26.17
2018-10-17T14:55:32.680Z,30.83
2018-10-17T14:58:01.208Z,27.93
2018-10-17T15:00:29.674Z,27.00
2018-10-17T15:02:58.108Z,32.77
2018-10-17T15:05:26.529Z,35.13
2018-10-17T15:07:54.938Z,31.97
2018-10-17T15:10:23.428Z,34.13
2018-10-17T15:12:51.924Z,29.87
2018-10-17T15:15:20.488Z,40.63
2018-10-17T15:17:48.879Z,36.67
2018-10-17T15:20:17.311Z,39.63
2018-10-17T15:22:45.748Z,38.67
2018-10-17T15:25:14.208Z,37.50
2018-10-17T15:27:42.608Z,35.00
2018-10-17T15:30:11.156Z,36.27
2018-10-17T15:32:39.496Z,32.73
2018-10-17T15:35:08.484Z,36.70
2018-10-17T15:37:36.957Z,38.63
2018-10-17T15:40:05.594Z,33.50
2018-10-17T15:42:34.056Z,36.67
2018-10-17T15:45:02.557Z,34.23
2018-10-17T15:47:30.958Z,37.07
2018-10-17T15:49:59.417Z,42.87
2018-10-17T15:52:27.843Z,41.20
2018-10-17T15:54:56.309Z,41.60
2018-10-17T15:57:24.739Z,43.10
2018-10-17T15:59:53.250Z,38.33
2018-10-17T16:02:21.704Z,45.60
2018-10-17T16:04:50.094Z,43.60
2018-10-17T16:07:18.555Z,44.70
2018-10-17T16:09:46.985Z,50.10
2018-10-17T16:12:15.486Z,50.30
2018-10-17T16:14:44.023Z,48.43
2018-10-17T16:17:12.550Z,52.33
2018-10-17T16:19:40.948Z,53.77
2018-10-17T16:22:09.432Z,42.20
2018-10-17T16:24:37.864Z,50.53
2018-10-17T16:27:06.443Z,45.07
2018-10-17T16:29:34.964Z,43.13
2018-10-17T16:32:03.509Z,48.63
2018-10-17T16:34:31.916Z,47.67
2018-10-17T16:37:00.389Z,50.63
2018-10-17T16:39:28.844Z,48.50
2018-10-17T16:41:57.365Z,52.40
2018-10-17T16:44:25.767Z,52.70
2018-10-17T16:46:54.276Z,53.27
2018-10-17T16:49:22.827Z,54.93
2018-10-17T16:51:51.280Z,66.27
2018-10-17T16:54:19.757Z,58.13
2018-10-17T16:56:48.200Z,50.40
2018-10-17T16:59:16.647Z,67.03
2018-10-17T17:01:45.113Z,55.60
2018-10-17T17:04:13.604Z,59.10
2018-10-17T17:06:42.104Z,54.10
2018-10-17T17:09:11.492Z,58.50
2018-10-17T17:11:39.980Z,59.73
2018-10-17T17:14:08.548Z,60.43
2018-10-17T17:16:36.993Z,63.27
2018-10-17T17:19:05.568Z,59.63
2018-10-17T17:21:34.141Z,63.67
2018-10-17T17:24:02.719Z,58.07
2018-10-17T17:26:31.154Z,58.17
2018-10-17T17:28:59.575Z,64.10
2018-10-17T17:31:28.029Z,65.37
2018-10-17T17:33:56.469Z,56.87
2018-10-17T17:36:24.972Z,68.20
2018-10-17T17:38:53.645Z,72.13
2018-10-17T17:41:22.169Z,59.47
2018-10-17T17:43:50.620Z,62.83
2018-10-17T17:46:19.088Z,62.93
2018-10-17T17:48:47.534Z,62.40
2018-10-17T17:51:16.197Z,66.83
2018-10-17T17:53:44.644Z,68.37
2018-10-17T17:56:13.140Z,73.23
2018-10-17T17:58:41.669Z,86.23
2018-10-17T18:01:10.084Z,80.43
2018-10-17T18:03:38.516Z,69.20
2018-10-17T18:06:06.964Z,76.40
2018-10-17T18:08:35.443Z,65.57
2018-10-17T18:11:25.354Z,64.17
2018-10-17T18:13:55.049Z,68.97
2018-10-17T18:16:23.532Z,75.97
2018-10-17T18:18:51.972Z,70.77
2018-10-17T18:21:20.399Z,73.90
2018-10-17T18:23:48.869Z,63.23
2018-10-17T18:26:17.367Z,66.67
2018-10-17T18:28:45.832Z,64.83
2018-10-17T18:31:14.290Z,77.00
2018-10-17T18:33:42.780Z,61.43
2018-10-17T18:36:11.224Z,70.63
2018-10-17T18:38:39.707Z,71.73
2018-10-17T18:41:08.177Z,66.07
2018-10-17T18:43:36.644Z,66.77
2018-10-17T18:46:05.380Z,70.63
2018-10-17T18:48:33.836Z,62.57
2018-10-17T18:51:02.339Z,65.00
2018-10-17T18:53:31.105Z,59.93
2018-10-17T18:55:59.678Z,69.77
2018-10-17T18:58:28.162Z,69.33
2018-10-17T19:00:56.623Z,65.07
2018-10-17T19:03:25.093Z,68.23
2018-10-17T19:05:53.596Z,60.87
2018-10-17T19:08:22.176Z,67.60
2018-10-17T19:10:50.542Z,63.27
2018-10-17T19:13:19.020Z,66.67
2018-10-17T19:15:47.547Z,59.13
2018-10-17T19:18:15.987Z,63.00
2018-10-17T19:20:44.432Z,58.13
2018-10-17T19:23:12.916Z,57.53
2018-10-17T19:25:41.368Z,66.27
2018-10-17T19:28:09.828Z,53.57
2018-10-17T19:30:38.268Z,57.90
2018-10-17T19:33:06.786Z,63.23
2018-10-17T19:35:35.364Z,59.13
2018-10-17T19:38:03.933Z,66.03
2018-10-17T19:40:32.384Z,67.17
2018-10-17T19:43:01.035Z,56.07
2018-10-17T19:45:29.489Z,62.53
2018-10-17T19:47:57.966Z,73.37
2018-10-17T19:50:26.390Z,62.67
2018-10-17T19:52:54.860Z,67.50
2018-10-17T19:55:23.365Z,62.90
2018-10-17T19:57:51.845Z,65.47
2018-10-17T20:00:20.340Z,69.63
2018-10-17T20:02:48.808Z,69.73
2018-10-17T20:05:17.332Z,72.57
2018-10-17T20:07:45.876Z,75.40
2018-10-17T20:10:14.283Z,69.07
2018-10-17T20:12:42.784Z,69.63
2018-10-17T20:15:11.300Z,66.90
2018-10-17T20:17:39.757Z,72.30
2018-10-17T20:20:08.230Z,60.47
2018-10-17T20:22:36.673Z,65.60
2018-10-17T20:25:05.877Z,60.93
2018-10-17T20:27:34.284Z,70.57
2018-10-17T20:30:02.751Z,77.97
2018-10-17T20:32:31.235Z,61.60
2018-10-17T20:34:59.794Z,63.77
2018-10-17T20:37:28.190Z,62.10
2018-10-17T20:39:56.658Z,62.03
2018-10-17T20:42:25.138Z,64.77
2018-10-17T20:44:53.584Z,68.63
2018-10-17T20:47:22.009Z,62.87
2018-10-17T20:49:50.468Z,62.63
2018-10-17T20:52:19.015Z,59.87
2018-10-17T20:54:47.433Z,68.07
2018-10-17T20:57:15.895Z,65.13
2018-10-17T20:59:44.372Z,62.53
2018-10-17T21:02:12.932Z,60.10
2018-10-17T21:04:41.316Z,67.03
2018-10-17T21:07:09.808Z,62.43
2018-10-17T21:09:38.302Z,62.53
2018-10-17T21:12:06.708Z,58.93
2018-10-17T21:14:35.169Z,83.20
2018-10-17T21:17:03.605Z,67.77
2018-10-17T21:19:32.066Z,67.93
2018-10-17T21:22:00.529Z,75.43
2018-10-17T21:24:28.980Z,85.57
2018-10-17T21:26:57.546Z,81.73
2018-10-17T21:29:25.890Z,71.63
2018-10-17T21:31:54.332Z,80.53
2018-10-17T21:34:22.799Z,96.63
2018-10-17T21:36:51.335Z,80.13
2018-10-17T21:39:19.784Z,73.80
2018-10-17T21:41:48.196Z,79.63
2018-10-17T21:44:16.642Z,75.67
2018-10-17T21:46:45.045Z,79.23
2018-10-17T21:49:13.467Z,76.67
2018-10-17T21:51:42.025Z,81.37
2018-10-17T21:54:10.446Z,82.03
2018-10-17T21:56:38.848Z,78.83
2018-10-17T21:59:07.584Z,94.20
2018-10-17T22:01:35.995Z,82.73
2018-10-17T22:04:04.481Z,88.60
2018-10-17T22:06:32.896Z,94.90
2018-10-17T22:09:01.512Z,80.60
2018-10-17T22:11:29.941Z,88.20
2018-10-17T22:13:58.414Z,99.63
2018-10-17T22:17:29.803Z,109.93
2018-10-17T22:19:58.463Z,96.73
2018-10-17T22:22:27.192Z,76.03
2018-10-17T22:24:56.311Z,94.07
2018-10-17T22:27:24.759Z,83.97
2018-10-17T22:29:53.447Z,86.33
2018-10-17T22:32:21.818Z,83.40
2018-10-17T22:34:50.268Z,104.47
2018-10-17T22:37:18.706Z,95.73
2018-10-17T22:39:47.144Z,88.80
2018-10-17T22:42:15.553Z,94.10
2018-10-17T22:44:44.061Z,99.90
2018-10-17T22:47:12.504Z,102.93
2018-10-17T22:49:40.939Z,90.13
2018-10-17T22:52:09.339Z,100.80
2018-10-17T22:54:37.755Z,106.53
2018-10-17T22:57:06.812Z,107.87
2018-10-17T22:59:35.232Z,95.10
2018-10-17T23:02:03.907Z,96.93
2018-10-17T23:04:32.411Z,91.50
2018-10-17T23:07:00.872Z,100.83
2018-10-17T23:09:29.284Z,107.80
2018-10-17T23:11:57.725Z,113.07
2018-10-17T23:14:26.145Z,103.37
2018-10-17T23:16:54.575Z,90.63
2018-10-17T23:19:22.999Z,98.83
2018-10-17T23:21:51.460Z,91.57
2018-10-17T23:24:20.000Z,89.63
2018-10-17T23:26:48.472Z,78.67
2018-10-17T23:29:16.913Z,86.00
2018-10-17T23:31:45.371Z,90.70
2018-10-17T23:34:13.808Z,95.00
2018-10-17T23:36:42.259Z,88.77
2018-10-17T23:39:10.826Z,88.23
2018-10-17T23:41:40.164Z,75.30
2018-10-17T23:44:08.676Z,77.20
2018-10-17T23:46:37.124Z,95.67
2018-10-17T23:49:05.618Z,90.17
2018-10-17T23:51:34.096Z,87.27
2018-10-17T23:54:02.591Z,91.00
2018-10-17T23:56:31.012Z,79.40
2018-10-17T23:58:59.440Z,91.30
